createdAt,value
2023-05-21T00:01:48.397Z,5.63
2023-05-21T00:04:15.747Z,6.10
2023-05-21T00:06:42.582Z,5.40
2023-05-21T00:09:09.430Z,5.55
2023-05-21T00:11:36.494Z,5.53
2023-05-21T00:14:03.444Z,6.00
2023-05-21T00:16:30.324Z,5.43
2023-05-21T00:18:58.280Z,5.35
2023-05-21T00:21:26.345Z,6.95
2023-05-21T00:23:54.364Z,7.25
2023-05-21T00:26:21.690Z,5.65
2023-05-21T00:28:49.390Z,6.37
2023-05-21T00:31:17.333Z,5.90
2023-05-21T00:33:44.175Z,6.30
2023-05-21T00:36:14.468Z,6.80
2023-05-21T00:38:46.007Z,5.72
2023-05-21T00:41:13.541Z,5.33
2023-05-21T00:43:41.367Z,6.32
2023-05-21T00:46:13.644Z,6.75
2023-05-21T00:48:40.561Z,6.55
2023-05-21T00:51:07.648Z,5.40
2023-05-21T00:53:35.644Z,6.23
2023-05-21T00:56:03.604Z,6.90
2023-05-21T00:58:33.511Z,6.35
2023-05-21T01:01:03.950Z,6.18
2023-05-21T01:03:31.202Z,5.40
2023-05-21T01:06:00.679Z,6.20
2023-05-21T01:08:28.787Z,8.30
2023-05-21T01:10:57.515Z,5.88
2023-05-21T01:13:26.182Z,6.93
2023-05-21T01:15:54.522Z,8.75
2023-05-21T01:18:22.040Z,6.47
2023-05-21T01:20:49.200Z,7.35
2023-05-21T01:23:20.307Z,5.35
2023-05-21T01:25:47.701Z,6.32
2023-05-21T01:28:14.700Z,6.45
2023-05-21T01:30:43.780Z,7.33
2023-05-21T01:33:26.191Z,5.85
2023-05-21T01:36:24.065Z,7.43
2023-05-21T01:39:04.170Z,6.20
2023-05-21T01:41:36.783Z,6.03
2023-05-21T01:44:06.836Z,6.23
2023-05-21T01:46:36.751Z,6.72
2023-05-21T01:49:05.528Z,6.50
2023-05-21T01:51:33.552Z,7.07
2023-05-21T01:54:01.177Z,6.70
2023-05-21T01:56:28.523Z,7.67
2023-05-21T01:58:59.400Z,6.20
2023-05-21T02:01:30.305Z,6.75
2023-05-21T02:04:00.808Z,8.18
2023-05-21T02:06:27.911Z,7.00
2023-05-21T02:08:55.692Z,9.00
2023-05-21T02:11:23.405Z,7.78
2023-05-21T02:13:50.240Z,8.80
2023-05-21T02:16:19.743Z,6.75
2023-05-21T02:18:48.108Z,8.90
2023-05-21T02:21:15.030Z,7.23
2023-05-21T02:23:42.573Z,7.00
2023-05-21T02:26:09.424Z,7.10
2023-05-21T02:28:36.531Z,6.72
2023-05-21T02:31:04.025Z,6.65
2023-05-21T02:33:31.168Z,11.67
2023-05-21T02:35:58.254Z,7.68
2023-05-21T02:38:25.926Z,7.10
2023-05-21T02:40:53.167Z,7.22
2023-05-21T02:43:20.340Z,7.93
2023-05-21T02:45:47.704Z,7.60
2023-05-21T02:48:14.959Z,7.05
2023-05-21T02:50:42.334Z,6.90
2023-05-21T02:53:09.225Z,8.02
2023-05-21T02:55:36.779Z,8.02
2023-05-21T02:58:03.845Z,6.83
2023-05-21T03:00:30.902Z,7.00
2023-05-21T03:02:57.773Z,7.53
2023-05-21T03:05:24.783Z,7.43
2023-05-21T03:07:51.774Z,7.43
2023-05-21T03:10:18.688Z,8.43
2023-05-21T03:12:45.710Z,7.60
2023-05-21T03:15:14.975Z,8.20
2023-05-21T03:17:44.840Z,7.32
2023-05-21T03:20:18.651Z,7.20
2023-05-21T03:22:46.445Z,6.97
2023-05-21T03:25:13.540Z,7.53
2023-05-21T03:27:40.516Z,7.07
2023-05-21T03:30:18.295Z,7.78
2023-05-21T03:33:05.035Z,6.75
2023-05-21T03:35:33.242Z,7.03
2023-05-21T03:38:00.276Z,8.43
2023-05-21T03:40:27.421Z,7.03
2023-05-21T03:42:54.381Z,8.60
2023-05-21T03:45:22.210Z,7.00
2023-05-21T03:48:09.028Z,8.90
2023-05-21T03:50:36.704Z,7.43
2023-05-21T03:53:03.627Z,12.70
2023-05-21T03:55:30.960Z,7.97
2023-05-21T03:57:57.930Z,9.02
2023-05-21T04:00:24.767Z,9.67
2023-05-21T04:02:53.571Z,9.10
2023-05-21T04:05:21.634Z,8.85
2023-05-21T04:07:48.657Z,10.45
2023-05-21T04:10:15.679Z,6.53
2023-05-21T04:12:42.724Z,7.70
2023-05-21T04:15:10.005Z,7.20
2023-05-21T04:17:37.036Z,7.35
2023-05-21T04:20:05.011Z,8.63
2023-05-21T04:22:31.963Z,8.07
2023-05-21T04:25:00.793Z,8.87
2023-05-21T04:27:31.974Z,7.03
2023-05-21T04:29:58.934Z,7.97
2023-05-21T04:32:25.886Z,8.73
2023-05-21T04:34:52.783Z,7.57
2023-05-21T04:37:19.733Z,8.03
2023-05-21T04:39:47.036Z,7.60
2023-05-21T04:42:14.263Z,8.10
2023-05-21T04:44:44.376Z,9.75
2023-05-21T04:47:14.725Z,8.80
2023-05-21T04:49:41.913Z,7.73
2023-05-21T04:52:08.876Z,8.10
2023-05-21T04:54:36.606Z,9.32
2023-05-21T04:57:03.523Z,7.55
2023-05-21T04:59:30.622Z,7.47
2023-05-21T05:01:57.630Z,10.23
2023-05-21T05:04:24.409Z,8.00
2023-05-21T05:06:52.276Z,8.65
2023-05-21T05:09:21.538Z,8.43
2023-05-21T05:11:48.608Z,7.63
2023-05-21T05:14:15.716Z,6.83
2023-05-21T05:16:44.488Z,8.05
2023-05-21T05:19:11.469Z,7.78
2023-05-21T05:21:38.688Z,7.18
2023-05-21T05:24:06.081Z,8.15
2023-05-21T05:26:32.923Z,8.27
2023-05-21T05:29:00.443Z,7.38
2023-05-21T05:31:27.397Z,9.30
2023-05-21T05:33:54.293Z,7.93
2023-05-21T05:36:23.242Z,7.57
2023-05-21T05:38:50.078Z,8.33
2023-05-21T05:41:17.228Z,7.35
2023-05-21T05:43:44.527Z,8.93
2023-05-21T05:46:11.478Z,9.15
2023-05-21T05:48:39.182Z,7.13
2023-05-21T05:51:06.132Z,7.63
2023-05-21T05:53:32.994Z,6.45
2023-05-21T05:56:00.252Z,8.50
2023-05-21T05:58:27.578Z,9.88
2023-05-21T06:01:07.182Z,8.88
2023-05-21T06:03:34.277Z,8.90
2023-05-21T06:06:08.778Z,8.75
2023-05-21T06:08:38.078Z,8.07
2023-05-21T06:11:05.350Z,7.82
2023-05-21T06:13:32.255Z,10.27
2023-05-21T06:15:59.114Z,9.73
2023-05-21T06:18:26.001Z,8.43
2023-05-21T06:20:53.358Z,8.75
2023-05-21T06:23:22.048Z,8.50
2023-05-21T06:25:49.609Z,8.05
2023-05-21T06:28:17.757Z,10.57
2023-05-21T06:30:44.796Z,8.77
2023-05-21T06:33:12.597Z,8.13
2023-05-21T06:35:40.278Z,7.75
2023-05-21T06:38:09.182Z,9.02
2023-05-21T06:40:36.418Z,8.63
2023-05-21T06:43:05.303Z,10.98
2023-05-21T06:46:10.985Z,8.77
2023-05-21T06:48:40.007Z,10.55
2023-05-21T06:51:06.935Z,8.13
2023-05-21T06:53:34.198Z,9.13
2023-05-21T06:56:01.143Z,8.00
2023-05-21T06:58:36.009Z,9.55
2023-05-21T07:01:03.099Z,8.77
2023-05-21T07:03:30.203Z,9.25
2023-05-21T07:06:00.413Z,10.47
2023-05-21T07:08:27.461Z,9.60
2023-05-21T07:10:56.401Z,8.55
2023-05-21T07:13:23.322Z,8.30
2023-05-21T07:15:50.185Z,9.02
2023-05-21T07:18:17.164Z,9.23
2023-05-21T07:20:44.725Z,9.25
2023-05-21T07:23:14.878Z,10.32
2023-05-21T07:25:41.871Z,9.27
2023-05-21T07:28:08.681Z,9.57
2023-05-21T07:30:35.924Z,8.47
2023-05-21T07:33:05.787Z,8.93
2023-05-21T07:35:32.781Z,8.20
2023-05-21T07:37:59.652Z,8.25
2023-05-21T07:40:26.555Z,10.25
2023-05-21T07:42:54.620Z,8.40
2023-05-21T07:45:23.302Z,10.35
2023-05-21T07:47:50.213Z,8.95
2023-05-21T07:50:17.245Z,11.45
2023-05-21T07:52:44.513Z,10.85
2023-05-21T07:55:11.446Z,9.13
2023-05-21T07:57:39.992Z,10.48
2023-05-21T08:00:15.701Z,9.02
2023-05-21T08:02:42.998Z,8.88
2023-05-21T08:05:13.131Z,9.68
2023-05-21T08:07:40.161Z,8.30
2023-05-21T08:10:08.830Z,8.68
2023-05-21T08:12:35.866Z,8.60
2023-05-21T08:15:05.082Z,9.82
2023-05-21T08:17:34.511Z,8.98
2023-05-21T08:20:02.084Z,8.13
2023-05-21T08:22:30.377Z,9.55
2023-05-21T08:24:57.158Z,8.55
2023-05-21T08:27:24.128Z,8.20
2023-05-21T08:30:11.130Z,7.97
2023-05-21T08:32:43.221Z,8.20
2023-05-21T08:35:11.551Z,9.02
2023-05-21T08:37:58.899Z,7.97
2023-05-21T08:41:00.929Z,9.43
2023-05-21T08:43:28.748Z,7.72
2023-05-21T08:45:57.403Z,9.80
2023-05-21T08:48:27.343Z,8.38
2023-05-21T08:50:55.037Z,8.07
2023-05-21T08:53:29.715Z,7.82
2023-05-21T08:55:57.917Z,9.35
2023-05-21T08:58:35.161Z,8.43
2023-05-21T09:01:04.654Z,8.65
2023-05-21T09:03:33.042Z,10.32
2023-05-21T09:06:00.838Z,8.57
2023-05-21T09:08:35.513Z,10.45
2023-05-21T09:11:06.545Z,9.90
2023-05-21T09:13:44.941Z,8.70
2023-05-21T09:16:19.238Z,8.48
2023-05-21T09:18:47.260Z,10.90
2023-05-21T09:21:28.377Z,8.98
2023-05-21T09:24:00.759Z,8.40
2023-05-21T09:26:28.068Z,9.05
2023-05-21T09:29:00.145Z,9.48
2023-05-21T09:31:27.620Z,9.30
2023-05-21T09:33:55.772Z,7.75
2023-05-21T09:36:25.579Z,10.87
2023-05-21T09:38:53.519Z,10.45
2023-05-21T09:41:22.466Z,7.00
2023-05-21T09:43:49.658Z,8.23
2023-05-21T09:46:21.778Z,9.35
2023-05-21T09:48:48.680Z,8.20
2023-05-21T09:51:19.926Z,9.18
2023-05-21T09:53:54.507Z,8.88
2023-05-21T09:56:23.471Z,7.88
2023-05-21T09:59:10.708Z,8.05
2023-05-21T10:01:38.672Z,9.13
2023-05-21T10:04:09.720Z,8.25
2023-05-21T10:06:42.282Z,8.65
2023-05-21T10:09:14.689Z,7.35
2023-05-21T10:11:45.092Z,7.07
2023-05-21T10:14:21.126Z,13.07
2023-05-21T10:16:48.447Z,7.88
2023-05-21T10:19:16.900Z,10.02
2023-05-21T10:21:45.004Z,10.35
2023-05-21T10:24:13.123Z,9.65
2023-05-21T10:26:41.708Z,11.30
2023-05-21T10:29:09.943Z,9.30
2023-05-21T10:31:39.116Z,8.65
2023-05-21T10:34:06.435Z,8.40
2023-05-21T10:36:34.344Z,8.98
2023-05-21T10:39:02.762Z,7.33
2023-05-21T10:41:39.174Z,11.30
2023-05-21T10:44:19.701Z,10.90
2023-05-21T10:47:29.276Z,8.00
2023-05-21T10:50:08.049Z,8.02
2023-05-21T10:53:12.420Z,9.20
2023-05-21T10:56:14.259Z,9.57
2023-05-21T10:58:47.299Z,8.25
2023-05-21T11:01:16.512Z,9.23
2023-05-21T11:03:43.752Z,9.07
2023-05-21T11:06:11.639Z,7.80
2023-05-21T11:08:47.287Z,8.43
2023-05-21T11:11:34.100Z,8.32
2023-05-21T11:14:01.030Z,8.05
2023-05-21T11:16:29.484Z,7.28
2023-05-21T11:19:00.203Z,9.90
2023-05-21T11:21:30.659Z,9.73
2023-05-21T11:24:02.582Z,8.10
2023-05-21T11:26:52.078Z,9.13
2023-05-21T11:29:19.970Z,8.02
2023-05-21T11:31:48.579Z,10.13
2023-05-21T11:34:15.606Z,6.95
2023-05-21T11:36:44.954Z,9.45
2023-05-21T11:39:23.901Z,7.95
2023-05-21T11:41:50.946Z,9.35
2023-05-21T11:44:17.884Z,9.50
2023-05-21T11:46:44.805Z,9.10
2023-05-21T11:49:12.622Z,9.25
2023-05-21T11:51:40.636Z,10.20
2023-05-21T11:54:10.133Z,7.97
2023-05-21T11:56:41.810Z,13.00
2023-05-21T11:59:17.134Z,10.00
2023-05-21T12:01:45.600Z,6.90
2023-05-21T12:04:12.634Z,7.53
2023-05-21T12:06:42.990Z,9.25
2023-05-21T12:09:10.885Z,9.73
2023-05-21T12:11:41.701Z,9.50
2023-05-21T12:14:12.126Z,10.10
2023-05-21T12:16:42.298Z,12.63
2023-05-21T12:19:09.935Z,9.50
2023-05-21T12:21:36.911Z,11.23
2023-05-21T12:24:03.960Z,10.93
2023-05-21T12:26:33.127Z,10.23
2023-05-21T12:29:00.126Z,13.57
2023-05-21T12:31:27.596Z,8.93
2023-05-21T12:33:54.527Z,11.30
2023-05-21T12:36:23.633Z,8.48
2023-05-21T12:38:52.064Z,8.73
2023-05-21T12:41:19.292Z,10.57
2023-05-21T12:43:46.993Z,11.05
2023-05-21T12:46:20.146Z,10.20
2023-05-21T12:48:52.856Z,10.00
2023-05-21T12:51:20.520Z,9.30
2023-05-21T12:53:48.059Z,8.20
2023-05-21T12:56:16.190Z,8.85
2023-05-21T12:58:49.597Z,7.47
2023-05-21T13:01:16.501Z,10.07
2023-05-21T13:03:44.208Z,10.88
2023-05-21T13:06:11.110Z,9.80
2023-05-21T13:08:38.316Z,10.48
2023-05-21T13:11:05.416Z,7.73
2023-05-21T13:13:32.284Z,10.05
2023-05-21T13:16:00.729Z,7.47
2023-05-21T13:18:27.735Z,13.18
2023-05-21T13:20:54.633Z,9.50
2023-05-21T13:23:21.465Z,9.17
2023-05-21T13:25:48.336Z,8.18
2023-05-21T13:28:16.445Z,9.63
2023-05-21T13:30:43.435Z,7.55
2023-05-21T13:33:11.698Z,9.25
2023-05-21T13:35:39.192Z,10.73
2023-05-21T13:38:06.108Z,10.43
2023-05-21T13:40:33.121Z,9.13
2023-05-21T13:43:00.109Z,13.75
2023-05-21T13:45:29.264Z,9.98
2023-05-21T13:47:56.726Z,8.70
2023-05-21T13:50:25.767Z,9.45
2023-05-21T13:52:52.984Z,19.10
2023-05-21T13:55:20.153Z,11.40
2023-05-21T13:57:47.090Z,9.13
2023-05-21T14:00:15.692Z,8.97
2023-05-21T14:02:44.211Z,9.85
2023-05-21T14:05:12.017Z,8.15
2023-05-21T14:07:40.025Z,8.27
2023-05-21T14:10:07.705Z,9.00
2023-05-21T14:12:34.757Z,8.73
2023-05-21T14:15:01.614Z,11.23
2023-05-21T14:17:28.545Z,15.27
2023-05-21T14:19:55.964Z,10.10
2023-05-21T14:22:23.430Z,9.52
2023-05-21T14:24:50.932Z,8.63
2023-05-21T14:27:17.923Z,9.77
2023-05-21T14:29:44.832Z,9.27
2023-05-21T14:32:11.712Z,12.00
2023-05-21T14:34:39.225Z,11.77
2023-05-21T14:37:06.506Z,10.17
2023-05-21T14:39:33.441Z,9.23
2023-05-21T14:42:02.924Z,8.65
2023-05-21T14:44:29.751Z,6.97
2023-05-21T14:46:56.687Z,8.52
2023-05-21T14:49:23.558Z,6.40
2023-05-21T14:51:50.622Z,8.30
2023-05-21T14:54:17.465Z,9.50
2023-05-21T14:56:44.420Z,7.90
2023-05-21T14:59:14.388Z,9.40
2023-05-21T15:01:41.402Z,7.27
2023-05-21T15:04:08.399Z,8.07
2023-05-21T15:06:35.615Z,7.90
2023-05-21T15:09:02.440Z,6.85
2023-05-21T15:11:29.353Z,8.77
2023-05-21T15:13:56.228Z,9.73
2023-05-21T15:16:23.227Z,7.63
2023-05-21T15:18:50.689Z,7.38
2023-05-21T15:21:17.574Z,9.43
2023-05-21T15:23:44.414Z,11.43
2023-05-21T15:26:11.349Z,8.07
2023-05-21T15:28:38.247Z,7.10
2023-05-21T15:31:06.421Z,11.13
2023-05-21T15:33:33.374Z,8.32
2023-05-21T15:36:00.501Z,9.77
2023-05-21T15:38:27.895Z,8.63
2023-05-21T15:40:55.510Z,8.32
2023-05-21T15:43:22.337Z,10.80
2023-05-21T15:45:49.210Z,11.00
2023-05-21T15:48:22.412Z,8.63
2023-05-21T15:50:49.990Z,10.43
2023-05-21T15:53:17.025Z,7.53
2023-05-21T15:55:44.759Z,7.95
2023-05-21T15:58:11.723Z,9.82
2023-05-21T16:00:38.762Z,10.25
2023-05-21T16:03:05.795Z,8.23
2023-05-21T16:05:32.745Z,7.45
2023-05-21T16:07:59.684Z,10.77
2023-05-21T16:10:26.478Z,7.60
2023-05-21T16:12:53.351Z,9.00
2023-05-21T16:15:20.274Z,10.30
2023-05-21T16:17:47.117Z,11.77
2023-05-21T16:20:14.202Z,9.50
2023-05-21T16:22:41.021Z,8.70
2023-05-21T16:25:08.302Z,11.63
2023-05-21T16:27:35.534Z,8.57
2023-05-21T16:30:02.637Z,10.77
2023-05-21T16:32:29.568Z,7.80
2023-05-21T16:34:56.493Z,9.95
2023-05-21T16:37:23.331Z,8.55
2023-05-21T16:39:50.229Z,7.67
2023-05-21T16:42:17.135Z,10.20
2023-05-21T16:44:43.914Z,7.93
2023-05-21T16:47:10.781Z,9.45
2023-05-21T16:49:37.737Z,9.23
2023-05-21T16:52:05.282Z,11.53
2023-05-21T16:54:33.155Z,9.77
2023-05-21T16:56:59.954Z,8.75
2023-05-21T16:59:27.024Z,8.70
2023-05-21T17:01:53.976Z,9.50
2023-05-21T17:04:20.912Z,13.30
2023-05-21T17:06:47.822Z,10.15
2023-05-21T17:09:15.289Z,10.20
2023-05-21T17:11:43.615Z,8.77
2023-05-21T17:14:13.376Z,12.38
2023-05-21T17:16:42.887Z,10.10
2023-05-21T17:19:10.420Z,8.52
2023-05-21T17:21:37.806Z,10.90
2023-05-21T17:24:05.077Z,11.20
2023-05-21T17:26:31.901Z,11.35
2023-05-21T17:28:58.789Z,11.43
2023-05-21T17:31:26.392Z,9.38
2023-05-21T17:33:53.264Z,11.50
2023-05-21T17:36:20.127Z,9.60
2023-05-21T17:38:46.990Z,10.68
2023-05-21T17:41:16.374Z,10.77
2023-05-21T17:43:43.284Z,10.13
2023-05-21T17:46:10.761Z,10.80
2023-05-21T17:48:37.600Z,13.48
2023-05-21T17:51:04.523Z,10.23
2023-05-21T17:53:31.492Z,10.87
2023-05-21T17:55:58.403Z,15.73
2023-05-21T17:58:25.401Z,13.50
2023-05-21T18:00:52.326Z,11.75
2023-05-21T18:03:19.273Z,12.02
2023-05-21T18:05:46.191Z,11.40
2023-05-21T18:08:13.515Z,12.60
2023-05-21T18:10:40.429Z,11.32
2023-05-21T18:13:07.362Z,10.63
2023-05-21T18:15:34.793Z,13.25
2023-05-21T18:18:02.105Z,11.60
2023-05-21T18:20:29.979Z,10.98
2023-05-21T18:22:56.886Z,14.13
2023-05-21T18:25:23.686Z,11.82
2023-05-21T18:27:50.605Z,15.05
2023-05-21T18:30:17.590Z,13.37
2023-05-21T18:32:44.973Z,14.35
2023-05-21T18:35:14.336Z,14.82
2023-05-21T18:37:44.520Z,14.50
2023-05-21T18:40:12.909Z,14.60
2023-05-21T18:42:40.810Z,14.60
2023-05-21T18:45:10.458Z,16.95
2023-05-21T18:47:39.283Z,16.38
2023-05-21T18:50:14.263Z,15.60
2023-05-21T18:52:41.554Z,14.00
2023-05-21T18:55:08.988Z,15.37
2023-05-21T18:57:35.959Z,15.05
2023-05-21T19:00:03.104Z,13.68
2023-05-21T19:02:30.171Z,13.43
2023-05-21T19:04:57.590Z,15.95
2023-05-21T19:07:24.511Z,15.93
2023-05-21T19:09:52.814Z,15.45
2023-05-21T19:12:19.726Z,15.15
2023-05-21T19:14:46.850Z,19.63
2023-05-21T19:17:14.032Z,20.23
2023-05-21T19:19:41.139Z,15.50
2023-05-21T19:22:08.439Z,16.80
2023-05-21T19:24:35.861Z,18.67
2023-05-21T19:27:02.856Z,18.98
2023-05-21T19:29:29.830Z,17.90
2023-05-21T19:31:57.314Z,20.10
2023-05-21T19:34:24.985Z,19.48
2023-05-21T19:36:53.657Z,18.58
2023-05-21T19:39:21.317Z,20.45
2023-05-21T19:41:48.242Z,18.25
2023-05-21T19:44:15.414Z,17.43
2023-05-21T19:46:42.384Z,18.63
2023-05-21T19:49:14.122Z,18.58
2023-05-21T19:51:40.919Z,16.55
2023-05-21T19:54:08.189Z,19.05
2023-05-21T19:56:35.038Z,22.93
2023-05-21T19:59:01.969Z,20.98
2023-05-21T20:01:32.834Z,21.35
2023-05-21T20:04:00.828Z,18.77
2023-05-21T20:06:27.726Z,20.52
2023-05-21T20:08:54.622Z,19.33
2023-05-21T20:11:21.896Z,17.20
2023-05-21T20:13:50.381Z,17.65
2023-05-21T20:16:20.247Z,17.30
2023-05-21T20:18:47.459Z,19.15
2023-05-21T20:21:15.379Z,21.20
2023-05-21T20:23:42.166Z,21.67
2023-05-21T20:26:09.194Z,20.45
2023-05-21T20:28:37.327Z,17.10
2023-05-21T20:31:04.518Z,21.05
2023-05-21T20:33:32.850Z,19.30
2023-05-21T20:36:00.711Z,19.15
2023-05-21T20:38:27.580Z,21.38
2023-05-21T20:40:55.257Z,18.15
2023-05-21T20:43:24.424Z,21.23
2023-05-21T20:45:59.371Z,19.20
2023-05-21T20:48:29.613Z,20.05
2023-05-21T20:50:57.569Z,21.65
2023-05-21T20:53:25.215Z,17.25
2023-05-21T20:55:54.860Z,19.55
2023-05-21T20:58:25.621Z,18.63
2023-05-21T21:00:52.699Z,19.85
2023-05-21T21:03:21.852Z,20.27
2023-05-21T21:05:49.004Z,19.88
2023-05-21T21:08:16.240Z,21.23
2023-05-21T21:10:46.910Z,19.23
2023-05-21T21:13:14.378Z,22.10
2023-05-21T21:15:41.272Z,19.02
2023-05-21T21:18:08.178Z,20.27
2023-05-21T21:20:35.044Z,21.17
2023-05-21T21:23:01.961Z,19.87
2023-05-21T21:25:28.987Z,22.45
2023-05-21T21:27:55.977Z,18.70
2023-05-21T21:30:22.884Z,21.02
2023-05-21T21:32:49.841Z,19.55
2023-05-21T21:35:16.965Z,23.07
2023-05-21T21:37:43.821Z,20.90
2023-05-21T21:40:11.230Z,19.48
2023-05-21T21:42:38.088Z,21.55
2023-05-21T21:45:05.509Z,21.63
2023-05-21T21:47:33.673Z,21.23
2023-05-21T21:50:00.555Z,20.23
2023-05-21T21:52:27.515Z,20.42
2023-05-21T21:54:57.646Z,21.00
2023-05-21T21:57:27.436Z,22.23
2023-05-21T21:59:54.313Z,23.03
2023-05-21T22:02:21.965Z,19.02
2023-05-21T22:04:48.980Z,21.77
2023-05-21T22:07:18.236Z,19.77
2023-05-21T22:09:45.766Z,21.90
2023-05-21T22:12:13.546Z,21.80
2023-05-21T22:14:40.437Z,21.63
2023-05-21T22:17:09.014Z,20.10
2023-05-21T22:19:35.950Z,22.17
2023-05-21T22:22:04.165Z,24.70
2023-05-21T22:24:32.716Z,23.30
2023-05-21T22:27:00.542Z,22.83
2023-05-21T22:29:27.494Z,23.17
2023-05-21T22:31:54.366Z,20.13
2023-05-21T22:34:22.315Z,25.75
2023-05-21T22:36:49.148Z,24.10
2023-05-21T22:39:16.049Z,22.55
2023-05-21T22:41:43.253Z,20.63
2023-05-21T22:44:10.294Z,20.25
2023-05-21T22:46:38.307Z,21.27
2023-05-21T22:49:06.305Z,23.23
2023-05-21T22:51:34.728Z,22.40
2023-05-21T22:54:02.041Z,25.23
2023-05-21T22:56:29.248Z,26.27
2023-05-21T22:58:56.599Z,25.35
2023-05-21T23:01:23.931Z,26.63
2023-05-21T23:03:51.606Z,24.48
2023-05-21T23:06:18.721Z,25.67
2023-05-21T23:08:45.890Z,25.25
2023-05-21T23:11:12.765Z,26.58
2023-05-21T23:13:39.644Z,25.60
2023-05-21T23:16:07.443Z,23.52
2023-05-21T23:18:35.479Z,25.33
2023-05-21T23:21:02.780Z,25.58
2023-05-21T23:23:29.700Z,23.90
2023-05-21T23:25:58.763Z,20.43
2023-05-21T23:28:26.453Z,24.48
2023-05-21T23:30:53.558Z,24.52
2023-05-21T23:33:20.459Z,25.00
2023-05-21T23:35:47.385Z,25.42
2023-05-21T23:38:14.364Z,25.47
2023-05-21T23:40:41.518Z,23.77
2023-05-21T23:43:08.405Z,26.05
2023-05-21T23:45:35.430Z,25.50
2023-05-21T23:48:02.328Z,25.05
2023-05-21T23:50:29.308Z,25.90
2023-05-21T23:52:56.666Z,25.15
2023-05-21T23:55:23.473Z,26.05
2023-05-21T23:57:50.413Z,25.98
